Say No More — 20699QC — position and weather

sailwx.info

Track history (hours):
 
Tides and Currents Weather Stations Pressure Air Temp Water Temp Dewpoint Dewpoint Depression Visibility Wind Speed Wind Dir Waves Ship Positions

Say No More

Last reported at 2018-Jun-18 04:39 UTC. Time now 2018-Jul-16 23:59 UTC.
Position S 27°52' E 153°24'.
Warning: this ship's position is 28 days out of date.

Length 13 m.

Type: Sailing vessel. MMSI: 503786500.

Date/timePositionNaut miles runAvg speedWind from/ knotsBaromVisibWave heightAir tempDewpointWater temp
2018-Jun-18 04:39S 27°52' E 153°24'1 4.3
2018-Jun-18 04:26S 27°52' E 153°24'3 6.0
2018-Jun-18 03:57S 27°49' E 153°25'2 4.1
2018-Jun-18 03:29S 27°47' E 153°24'3 5.5
2018-Jun-18 03:00S 27°45' E 153°21'3 5.1
2018-Jun-18 02:30S 27°43' E 153°21'1 1.9
2018-Jun-18 01:58S 27°42' E 153°22'5 0.3
2018-Jun-17 07:59S 27°38' E 153°25'0 0.0
2018-Jun-17 07:25S 27°38' E 153°25'0 0.0
2018-Jun-17 05:19S 27°38' E 153°25'0 0.0
2018-Jun-17 05:01S 27°38' E 153°25'0 0.0
2018-Jun-17 04:29S 27°38' E 153°25'2 4.0
2018-Jun-17 04:00S 27°37' E 153°24'19 1.3
2018-Jun-16 12:55S 27°17' E 153°23'0 0.0
2018-Jun-16 11:59S 27°17' E 153°23'0 0.0
2018-Jun-16 11:19S 27°17' E 153°23'0 0.0
2018-Jun-16 10:59S 27°17' E 153°23'17 2.0
2018-Jun-16 02:17S 27°35' E 153°22'2 5.7
2018-Jun-16 02:00S 27°36' E 153°24'3 4.1
2018-Jun-16 01:22S 27°38' E 153°23'1 3.8
2018-Jun-16 00:59S 27°39' E 153°21'2 4.9
2018-Jun-16 00:29S 27°41' E 153°22'3 5.9
2018-Jun-15 23:59S 27°44' E 153°21'3 5.4
2018-Jun-15 23:29S 27°47' E 153°23'2 4.5
2018-Jun-15 23:00S 27°48' E 153°25'3 6.0
2018-Jun-15 22:26S 27°51' E 153°24'  
Track history (hours):
 
Tides and Currents Weather Stations Pressure Air Temp Water Temp Dewpoint Dewpoint Depression Visibility Wind Speed Wind Dir Waves Ship Positions

Say No More

Last reported at 2018-Jun-18 04:39 UTC. Time now 2018-Jul-16 23:59 UTC.
Position S 27°52' E 153°24'.
Warning: this ship's position is 28 days out of date.

Length 13 m.

Type: Sailing vessel. MMSI: 503786500.

Date/timePositionNaut miles runAvg speedWind from/ knotsBaromVisibWave heightAir tempDewpointWater temp
2018-Jun-18 04:39S 27°52' E 153°24'1 4.3
2018-Jun-18 04:26S 27°52' E 153°24'3 6.0
2018-Jun-18 03:57S 27°49' E 153°25'2 4.1
2018-Jun-18 03:29S 27°47' E 153°24'3 5.5
2018-Jun-18 03:00S 27°45' E 153°21'3 5.1
2018-Jun-18 02:30S 27°43' E 153°21'1 1.9
2018-Jun-18 01:58S 27°42' E 153°22'5 0.3
2018-Jun-17 07:59S 27°38' E 153°25'0 0.0
2018-Jun-17 07:25S 27°38' E 153°25'0 0.0
2018-Jun-17 05:19S 27°38' E 153°25'0 0.0
2018-Jun-17 05:01S 27°38' E 153°25'0 0.0
2018-Jun-17 04:29S 27°38' E 153°25'2 4.0
2018-Jun-17 04:00S 27°37' E 153°24'19 1.3
2018-Jun-16 12:55S 27°17' E 153°23'0 0.0
2018-Jun-16 11:59S 27°17' E 153°23'0 0.0
2018-Jun-16 11:19S 27°17' E 153°23'0 0.0
2018-Jun-16 10:59S 27°17' E 153°23'17 2.0
2018-Jun-16 02:17S 27°35' E 153°22'2 5.7
2018-Jun-16 02:00S 27°36' E 153°24'3 4.1
2018-Jun-16 01:22S 27°38' E 153°23'1 3.8
2018-Jun-16 00:59S 27°39' E 153°21'2 4.9
2018-Jun-16 00:29S 27°41' E 153°22'3 5.9
2018-Jun-15 23:59S 27°44' E 153°21'3 5.4
2018-Jun-15 23:29S 27°47' E 153°23'2 4.5
2018-Jun-15 23:00S 27°48' E 153°25'3 6.0
2018-Jun-15 22:26S 27°51' E 153°24'  

Dump ship's entire track history